Terminal Aerodrome Forecast
Issued by NWS Charleston, WV

Home | Current Version | Previous Version | Text Only | Print | Product List | Glossary On
Versions: 1 2 3 4 5 6 7 8 9 10 11 12 13 14 15 16 17 18 19 20 21 22 23 24 25 26 27 28 29
000
FTUS41 KRLX 291900 AAA
TAFEKN
TAF AMD
KEKN 291905Z 2919/3018 19011G19KT 6SM -SHRA BR OVC050
      TEMPO 2919/2920 5SM -RA BKN030
     FM292100 19011G19KT P6SM BKN040
     FM300100 23010G17KT 5SM -RASN OVC035
     FM300200 25012G20KT 2SM -SN OVC020
     FM300800 29013G22KT 1SM -SHSN OVC015=

USA.gov is the U.S. government's official web portal to all federal, state and local government web resources and services.